createdAt,value
2022-09-26T00:00:54.128Z,1003.96
2022-09-26T00:01:54.212Z,1003.91
2022-09-26T00:02:54.188Z,1003.92
2022-09-26T00:03:54.158Z,1003.92
2022-09-26T00:04:54.194Z,1003.91
2022-09-26T00:05:54.225Z,1003.91
2022-09-26T00:06:54.267Z,1003.93
2022-09-26T00:07:54.300Z,1003.93
2022-09-26T00:08:54.331Z,1003.90
2022-09-26T00:09:54.365Z,1003.94
2022-09-26T00:10:54.394Z,1003.92
2022-09-26T00:11:54.433Z,1003.91
2022-09-26T00:12:54.464Z,1003.89
2022-09-26T00:13:54.493Z,1003.88
2022-09-26T00:14:54.530Z,1003.88
2022-09-26T00:15:54.566Z,1003.89
2022-09-26T00:16:54.682Z,1003.84
2022-09-26T00:17:54.627Z,1003.84
2022-09-26T00:18:54.664Z,1003.83
2022-09-26T00:19:54.697Z,1003.81
2022-09-26T00:20:54.734Z,1003.78
2022-09-26T00:21:54.763Z,1003.83
2022-09-26T00:22:54.798Z,1003.81
2022-09-26T00:23:54.834Z,1003.80
2022-09-26T00:24:54.867Z,1003.81
2022-09-26T00:25:54.897Z,1003.77
2022-09-26T00:26:54.933Z,1003.82
2022-09-26T00:27:54.967Z,1003.83
2022-09-26T00:28:55.001Z,1003.80
2022-09-26T00:29:55.037Z,1003.80
2022-09-26T00:30:55.168Z,1003.79
2022-09-26T00:31:55.103Z,1003.78
2022-09-26T00:32:55.221Z,1003.79
2022-09-26T00:33:55.169Z,1003.76
2022-09-26T00:34:55.205Z,1003.76
2022-09-26T00:35:55.233Z,1003.75
2022-09-26T00:36:55.269Z,1003.73
2022-09-26T00:37:55.303Z,1003.73
2022-09-26T00:38:55.335Z,1003.66
2022-09-26T00:39:55.368Z,1003.68
2022-09-26T00:40:55.483Z,1003.70
2022-09-26T00:41:55.435Z,1003.67
2022-09-26T00:42:55.472Z,1003.64
2022-09-26T00:43:55.503Z,1003.66
2022-09-26T00:44:55.538Z,1003.68
2022-09-26T00:45:55.620Z,1003.68
2022-09-26T00:46:55.611Z,1003.69
2022-09-26T00:47:55.641Z,1003.71
2022-09-26T00:48:55.672Z,1003.68
2022-09-26T00:49:55.702Z,1003.67
2022-09-26T00:50:55.740Z,1003.71
2022-09-26T00:51:55.775Z,1003.64
2022-09-26T00:52:55.804Z,1003.68
2022-09-26T00:53:55.837Z,1003.66
2022-09-26T00:54:55.873Z,1003.65
2022-09-26T00:55:55.907Z,1003.67
2022-09-26T00:56:55.945Z,1003.68
2022-09-26T00:57:55.971Z,1003.65
2022-09-26T00:58:56.010Z,1003.70
2022-09-26T00:59:56.039Z,1003.67
2022-09-26T01:00:56.177Z,1003.63
2022-09-26T01:01:56.207Z,1003.61
2022-09-26T01:02:56.142Z,1003.61
2022-09-26T01:03:56.171Z,1003.60
2022-09-26T01:04:56.212Z,1003.55
2022-09-26T01:05:56.239Z,1003.52
2022-09-26T01:06:56.274Z,1003.54
2022-09-26T01:07:56.306Z,1003.51
2022-09-26T01:08:56.342Z,1003.48
2022-09-26T01:09:56.373Z,1003.48
2022-09-26T01:10:56.409Z,1003.48
2022-09-26T01:11:56.440Z,1003.47
2022-09-26T01:12:56.476Z,1003.51
2022-09-26T01:13:56.518Z,1003.45
2022-09-26T01:14:56.542Z,1003.41
2022-09-26T01:15:56.575Z,1003.44
2022-09-26T01:16:56.672Z,1003.44
2022-09-26T01:17:56.640Z,1003.45
2022-09-26T01:18:56.676Z,1003.42
2022-09-26T01:19:56.708Z,1003.45
2022-09-26T01:20:56.746Z,1003.45
2022-09-26T01:21:56.776Z,1003.44
2022-09-26T01:22:56.809Z,1003.47
2022-09-26T01:23:56.844Z,1003.45
2022-09-26T01:24:56.877Z,1003.44
2022-09-26T01:25:56.910Z,1003.43
2022-09-26T01:26:56.943Z,1003.41
2022-09-26T01:27:56.980Z,1003.39
2022-09-26T01:28:57.010Z,1003.38
2022-09-26T01:29:57.041Z,1003.37
2022-09-26T01:30:57.117Z,1003.34
2022-09-26T01:31:57.110Z,1003.32
2022-09-26T01:32:57.146Z,1003.33
2022-09-26T01:33:57.177Z,1003.33
2022-09-26T01:34:57.210Z,1003.33
2022-09-26T01:35:57.243Z,1003.32
2022-09-26T01:36:57.280Z,1003.34
2022-09-26T01:37:57.309Z,1003.33
2022-09-26T01:38:57.344Z,1003.30
2022-09-26T01:39:57.377Z,1003.29
2022-09-26T01:40:57.514Z,1003.25
2022-09-26T01:41:57.535Z,1003.26
2022-09-26T01:42:57.499Z,1003.26
2022-09-26T01:43:57.523Z,1003.25
2022-09-26T01:44:57.559Z,1003.22
2022-09-26T01:45:57.628Z,1003.20
2022-09-26T01:46:57.625Z,1003.18
2022-09-26T01:47:57.660Z,1003.19
2022-09-26T01:48:57.691Z,1003.15
2022-09-26T01:49:57.723Z,1003.14
2022-09-26T01:50:57.760Z,1003.12
2022-09-26T01:51:57.790Z,1003.10
2022-09-26T01:52:57.827Z,1003.09
2022-09-26T01:53:57.856Z,1003.06
2022-09-26T01:54:57.892Z,1003.07
2022-09-26T01:55:57.926Z,1003.04
2022-09-26T01:56:57.962Z,1003.06
2022-09-26T01:57:57.992Z,1003.07
2022-09-26T01:58:58.024Z,1003.07
2022-09-26T01:59:58.057Z,1003.04
2022-09-26T02:00:58.115Z,1003.08
2022-09-26T02:01:58.181Z,1003.08
2022-09-26T02:02:58.158Z,1003.09
2022-09-26T02:03:58.194Z,1003.08
2022-09-26T02:04:58.232Z,1003.05
2022-09-26T02:05:58.257Z,1003.04
2022-09-26T02:06:58.290Z,1003.04
2022-09-26T02:07:58.329Z,1003.06
2022-09-26T02:08:58.366Z,1003.07
2022-09-26T02:09:58.391Z,1003.04
2022-09-26T02:10:58.423Z,1003.03
2022-09-26T02:11:58.463Z,1003.05
2022-09-26T02:12:58.490Z,1003.04
2022-09-26T02:13:58.522Z,1003.04
2022-09-26T02:14:58.558Z,1003.01
2022-09-26T02:15:58.590Z,1003.01
2022-09-26T02:16:58.717Z,1002.99
2022-09-26T02:17:58.656Z,1003.00
2022-09-26T02:18:58.699Z,1002.95
2022-09-26T02:19:58.723Z,1002.94
2022-09-26T02:20:58.774Z,1002.92
2022-09-26T02:21:58.795Z,1002.93
2022-09-26T02:22:58.825Z,1002.92
2022-09-26T02:23:58.856Z,1002.88
2022-09-26T02:24:58.893Z,1002.89
2022-09-26T02:25:58.920Z,1002.86
2022-09-26T02:26:58.956Z,1002.89
2022-09-26T02:27:58.989Z,1002.83
2022-09-26T02:28:59.024Z,1002.83
2022-09-26T02:29:59.055Z,1002.80
2022-09-26T02:30:59.089Z,1002.77
2022-09-26T02:31:59.142Z,1002.80
2022-09-26T02:32:59.159Z,1002.79
2022-09-26T02:33:59.189Z,1002.78
2022-09-26T02:34:59.237Z,1002.77
2022-09-26T02:35:59.259Z,1002.72
2022-09-26T02:36:59.289Z,1002.74
2022-09-26T02:37:59.321Z,1002.75
2022-09-26T02:38:59.356Z,1002.71
2022-09-26T02:39:59.388Z,1002.67
2022-09-26T02:40:59.660Z,1002.70
2022-09-26T02:41:59.453Z,1002.73
2022-09-26T02:42:59.488Z,1002.68
2022-09-26T02:43:59.527Z,1002.66
2022-09-26T02:44:59.555Z,1002.70
2022-09-26T02:45:59.596Z,1002.66
2022-09-26T02:46:59.621Z,1002.65
2022-09-26T02:47:59.654Z,1002.63
2022-09-26T02:48:59.688Z,1002.63
2022-09-26T02:49:59.720Z,1002.65
2022-09-26T02:50:59.758Z,1002.61
2022-09-26T02:51:59.787Z,1002.59
2022-09-26T02:52:59.819Z,1002.58
2022-09-26T02:53:59.852Z,1002.58
2022-09-26T02:54:59.893Z,1002.57
2022-09-26T02:55:59.932Z,1002.56
2022-09-26T02:56:59.952Z,1002.58
2022-09-26T02:57:59.986Z,1002.58
2022-09-26T02:59:00.023Z,1002.51
2022-09-26T03:00:00.051Z,1002.52
2022-09-26T03:01:00.153Z,1002.51
2022-09-26T03:02:00.122Z,1002.47
2022-09-26T03:03:00.150Z,1002.50
2022-09-26T03:04:00.184Z,1002.45
2022-09-26T03:05:00.342Z,1002.47
2022-09-26T03:06:00.250Z,1002.47
2022-09-26T03:07:00.287Z,1002.48
2022-09-26T03:08:00.316Z,1002.50
2022-09-26T03:09:00.350Z,1002.52
2022-09-26T03:10:00.383Z,1002.49
2022-09-26T03:11:00.415Z,1002.53
2022-09-26T03:12:00.449Z,1002.53
2022-09-26T03:13:00.487Z,1002.50
2022-09-26T03:14:00.515Z,1002.53
2022-09-26T03:15:00.548Z,1002.53
2022-09-26T03:16:00.633Z,1002.47
2022-09-26T03:17:00.627Z,1002.50
2022-09-26T03:18:00.650Z,1002.51
2022-09-26T03:19:00.687Z,1002.53
2022-09-26T03:20:00.714Z,1002.56
2022-09-26T03:21:00.749Z,1002.50
2022-09-26T03:22:00.780Z,1002.50
2022-09-26T03:23:00.814Z,1002.52
2022-09-26T03:24:00.849Z,1002.48
2022-09-26T03:25:00.898Z,1002.48
2022-09-26T03:26:00.958Z,1002.48
2022-09-26T03:27:00.945Z,1002.50
2022-09-26T03:28:00.980Z,1002.52
2022-09-26T03:29:01.018Z,1002.48
2022-09-26T03:30:01.044Z,1002.44
2022-09-26T03:31:01.076Z,1002.40
2022-09-26T03:32:01.288Z,1002.41
2022-09-26T03:33:01.144Z,1002.35
2022-09-26T03:34:01.184Z,1002.36
2022-09-26T03:35:01.210Z,1002.37
2022-09-26T03:36:01.243Z,1002.33
2022-09-26T03:37:01.276Z,1002.29
2022-09-26T03:38:01.310Z,1002.30
2022-09-26T03:39:01.341Z,1002.27
2022-09-26T03:40:01.377Z,1002.29
2022-09-26T03:41:01.455Z,1002.30
2022-09-26T03:42:01.440Z,1002.26
2022-09-26T03:43:01.473Z,1002.28
2022-09-26T03:44:01.509Z,1002.29
2022-09-26T03:45:01.561Z,1002.30
2022-09-26T03:46:01.623Z,1002.23
2022-09-26T03:47:01.610Z,1002.28
2022-09-26T03:48:01.641Z,1002.25
2022-09-26T03:49:01.672Z,1002.30
2022-09-26T03:50:01.708Z,1002.24
2022-09-26T03:51:01.736Z,1002.27
2022-09-26T03:52:01.775Z,1002.24
2022-09-26T03:53:01.804Z,1002.25
2022-09-26T03:54:01.836Z,1002.22
2022-09-26T03:55:01.877Z,1002.25
2022-09-26T03:56:01.903Z,1002.24
2022-09-26T03:57:01.937Z,1002.22
2022-09-26T03:58:01.972Z,1002.26
2022-09-26T03:59:02.001Z,1002.20
2022-09-26T04:00:02.036Z,1002.20
2022-09-26T04:01:02.269Z,1002.17
2022-09-26T04:02:02.187Z,1002.17
2022-09-26T04:03:02.132Z,1002.10
2022-09-26T04:04:02.169Z,1002.10
2022-09-26T04:05:02.207Z,1002.08
2022-09-26T04:06:02.237Z,1002.09
2022-09-26T04:07:02.264Z,1002.05
2022-09-26T04:08:02.300Z,1002.03
2022-09-26T04:09:02.332Z,1002.05
2022-09-26T04:10:02.371Z,1002.02
2022-09-26T04:11:02.399Z,1002.05
2022-09-26T04:12:02.430Z,1002.07
2022-09-26T04:13:02.466Z,1002.04
2022-09-26T04:14:02.496Z,1002.04
2022-09-26T04:15:02.530Z,1002.05
2022-09-26T04:16:02.642Z,1002.03
2022-09-26T04:17:02.599Z,1002.06
2022-09-26T04:18:02.630Z,1002.00
2022-09-26T04:19:02.668Z,1001.99
2022-09-26T04:20:02.694Z,1001.96
2022-09-26T04:21:04.797Z,1001.98
2022-09-26T04:22:02.770Z,1001.98
2022-09-26T04:23:02.796Z,1001.94
2022-09-26T04:24:02.825Z,1001.94
2022-09-26T04:25:02.858Z,1001.89
2022-09-26T04:26:02.895Z,1001.89
2022-09-26T04:27:02.930Z,1001.88
2022-09-26T04:28:02.958Z,1001.87
2022-09-26T04:29:02.990Z,1001.85
2022-09-26T04:30:03.022Z,1001.86
2022-09-26T04:31:03.054Z,1001.80
2022-09-26T04:32:03.140Z,1001.83
2022-09-26T04:33:03.123Z,1001.84
2022-09-26T04:34:03.153Z,1001.77
2022-09-26T04:35:03.204Z,1001.82
2022-09-26T04:36:03.223Z,1001.78
2022-09-26T04:37:03.257Z,1001.84
2022-09-26T04:38:03.285Z,1001.79
2022-09-26T04:39:03.318Z,1001.86
2022-09-26T04:40:03.359Z,1001.84
2022-09-26T04:41:03.420Z,1001.83
2022-09-26T04:42:03.417Z,1001.86
2022-09-26T04:43:03.450Z,1001.83
2022-09-26T04:44:03.485Z,1001.86
2022-09-26T04:45:03.517Z,1001.83
2022-09-26T04:46:03.664Z,1001.82
2022-09-26T04:47:03.585Z,1001.79
2022-09-26T04:48:03.616Z,1001.81
2022-09-26T04:49:03.646Z,1001.85
2022-09-26T04:50:03.680Z,1001.86
2022-09-26T04:51:03.714Z,1001.84
2022-09-26T04:52:03.745Z,1001.86
2022-09-26T04:53:03.780Z,1001.84
2022-09-26T04:54:03.811Z,1001.81
2022-09-26T04:55:03.844Z,1001.84
2022-09-26T04:56:03.876Z,1001.84
2022-09-26T04:57:03.911Z,1001.86
2022-09-26T04:58:03.941Z,1001.83
2022-09-26T04:59:03.975Z,1001.87
2022-09-26T05:00:04.011Z,1001.86
2022-09-26T05:01:04.116Z,1001.82
2022-09-26T05:02:04.126Z,1001.83
2022-09-26T05:03:04.108Z,1001.79
2022-09-26T05:04:04.171Z,1001.84
2022-09-26T05:05:04.175Z,1001.81
2022-09-26T05:06:04.206Z,1001.80
2022-09-26T05:07:04.236Z,1001.82
2022-09-26T05:08:04.270Z,1001.81
2022-09-26T05:09:04.303Z,1001.87
2022-09-26T05:10:04.335Z,1001.82
2022-09-26T05:11:04.368Z,1001.81
2022-09-26T05:12:04.403Z,1001.82
2022-09-26T05:13:04.435Z,1001.82
2022-09-26T05:14:04.465Z,1001.80
2022-09-26T05:15:04.498Z,1001.79
2022-09-26T05:16:04.553Z,1001.78
2022-09-26T05:17:04.579Z,1001.74
2022-09-26T05:18:04.597Z,1001.80
2022-09-26T05:19:04.630Z,1001.76
2022-09-26T05:20:04.664Z,1001.75
2022-09-26T05:21:04.698Z,1001.82
2022-09-26T05:22:04.729Z,1001.81
2022-09-26T05:23:04.760Z,1001.79
2022-09-26T05:24:04.802Z,1001.80
2022-09-26T05:25:04.827Z,1001.79
2022-09-26T05:26:04.859Z,1001.81
2022-09-26T05:27:04.901Z,1001.79
2022-09-26T05:28:04.924Z,1001.78
2022-09-26T05:29:08.526Z,1001.79
2022-09-26T05:30:04.989Z,1001.76
2022-09-26T05:31:05.077Z,1001.84
2022-09-26T05:32:05.178Z,1001.77
2022-09-26T05:33:05.103Z,1001.76
2022-09-26T05:34:05.119Z,1001.78
2022-09-26T05:35:05.155Z,1001.78
2022-09-26T05:36:05.186Z,1001.77
2022-09-26T05:37:05.218Z,1001.75
2022-09-26T05:38:05.250Z,1001.73
2022-09-26T05:39:05.287Z,1001.75
2022-09-26T05:40:05.315Z,1001.74
2022-09-26T05:41:05.437Z,1001.76
2022-09-26T05:42:05.381Z,1001.75
2022-09-26T05:43:05.413Z,1001.75
2022-09-26T05:44:05.447Z,1001.75
2022-09-26T05:45:05.478Z,1001.78
2022-09-26T05:46:05.512Z,1001.78
2022-09-26T05:47:05.580Z,1001.76
2022-09-26T05:48:05.576Z,1001.72
2022-09-26T05:49:05.649Z,1001.75
2022-09-26T05:50:05.641Z,1001.72
2022-09-26T05:51:05.673Z,1001.68
2022-09-26T05:52:05.707Z,1001.72
2022-09-26T05:53:05.739Z,1001.69
2022-09-26T05:54:05.771Z,1001.71
2022-09-26T05:55:05.807Z,1001.69
2022-09-26T05:56:05.840Z,1001.68
2022-09-26T05:57:05.870Z,1001.69
2022-09-26T05:58:05.904Z,1001.67
2022-09-26T05:59:06.001Z,1001.68
2022-09-26T06:00:05.976Z,1001.63
2022-09-26T06:01:06.035Z,1001.68
2022-09-26T06:02:06.112Z,1001.73
2022-09-26T06:03:06.063Z,1001.70
2022-09-26T06:04:06.097Z,1001.75
2022-09-26T06:05:06.129Z,1001.71
2022-09-26T06:06:06.165Z,1001.70
2022-09-26T06:07:06.194Z,1001.74
2022-09-26T06:08:06.228Z,1001.69
2022-09-26T06:09:06.413Z,1001.66
2022-09-26T06:10:06.294Z,1001.66
2022-09-26T06:11:06.324Z,1001.69
2022-09-26T06:12:06.361Z,1001.63
2022-09-26T06:13:06.391Z,1001.65
2022-09-26T06:14:06.430Z,1001.69
2022-09-26T06:15:06.459Z,1001.65
2022-09-26T06:16:06.581Z,1001.62
2022-09-26T06:17:06.520Z,1001.65
2022-09-26T06:18:06.553Z,1001.59
2022-09-26T06:19:06.690Z,1001.61
2022-09-26T06:20:06.619Z,1001.62
2022-09-26T06:21:06.657Z,1001.62
2022-09-26T06:22:06.689Z,1001.57
2022-09-26T06:23:06.714Z,1001.64
2022-09-26T06:24:06.750Z,1001.61
2022-09-26T06:25:06.784Z,1001.63
2022-09-26T06:26:06.812Z,1001.57
2022-09-26T06:27:06.843Z,1001.61
2022-09-26T06:28:06.880Z,1001.59
2022-09-26T06:29:06.998Z,1001.57
2022-09-26T06:30:06.958Z,1001.58
2022-09-26T06:31:07.059Z,1001.59
2022-09-26T06:32:07.116Z,1001.57
2022-09-26T06:33:07.041Z,1001.58
2022-09-26T06:34:07.078Z,1001.55
2022-09-26T06:35:07.107Z,1001.55
2022-09-26T06:36:07.142Z,1001.52
2022-09-26T06:37:07.171Z,1001.56
2022-09-26T06:38:07.217Z,1001.53
2022-09-26T06:39:07.246Z,1001.55
2022-09-26T06:40:07.268Z,1001.48
2022-09-26T06:41:07.577Z,1001.49
2022-09-26T06:42:07.424Z,1001.42
2022-09-26T06:43:07.366Z,1001.43
2022-09-26T06:44:07.404Z,1001.43
2022-09-26T06:45:07.431Z,1001.43
2022-09-26T06:46:07.467Z,1001.42
2022-09-26T06:47:07.555Z,1001.37
2022-09-26T06:48:07.547Z,1001.38
2022-09-26T06:49:07.572Z,1001.42
2022-09-26T06:50:07.597Z,1001.36
2022-09-26T06:51:07.626Z,1001.39
2022-09-26T06:52:07.663Z,1001.38
2022-09-26T06:53:12.709Z,1001.41
2022-09-26T06:54:07.725Z,1001.34
2022-09-26T06:55:07.763Z,1001.35
2022-09-26T06:56:07.792Z,1001.35
2022-09-26T06:57:11.648Z,1001.33
2022-09-26T06:58:07.856Z,1001.33
2022-09-26T06:59:07.889Z,1001.25
2022-09-26T07:00:07.924Z,1001.26
2022-09-26T07:01:08.093Z,1001.20
2022-09-26T07:02:08.217Z,1001.23
2022-09-26T07:03:08.022Z,1001.18
2022-09-26T07:04:08.052Z,1001.31
2022-09-26T07:05:08.085Z,1001.22
2022-09-26T07:06:08.118Z,1001.26
2022-09-26T07:07:08.152Z,1001.25
2022-09-26T07:08:08.183Z,1001.29
2022-09-26T07:09:14.553Z,1001.22
2022-09-26T07:10:08.248Z,1001.25
2022-09-26T07:11:31.110Z,1001.27
2022-09-26T07:12:16.070Z,1001.35
2022-09-26T07:13:08.408Z,1001.24
2022-09-26T07:14:08.378Z,1001.34
2022-09-26T07:15:08.415Z,1001.27
2022-09-26T07:16:08.485Z,1001.26
2022-09-26T07:17:08.491Z,1001.26
2022-09-26T07:18:08.510Z,1001.25
2022-09-26T07:19:08.563Z,1001.23
2022-09-26T07:20:08.579Z,1001.28
2022-09-26T07:21:08.616Z,1001.23
2022-09-26T07:22:08.641Z,1001.22
2022-09-26T07:23:08.702Z,1001.23
2022-09-26T07:24:08.711Z,1001.21
2022-09-26T07:25:08.743Z,1001.23
2022-09-26T07:26:08.781Z,1001.22
2022-09-26T07:27:08.807Z,1001.23
2022-09-26T07:28:08.838Z,1001.21
2022-09-26T07:29:08.945Z,1001.19
2022-09-26T07:30:08.907Z,1001.19
2022-09-26T07:31:08.999Z,1001.19
2022-09-26T07:32:08.972Z,1001.19
2022-09-26T07:33:09.004Z,1001.17
2022-09-26T07:34:09.078Z,1001.10
2022-09-26T07:35:09.069Z,1001.12
2022-09-26T07:36:09.103Z,1001.11
2022-09-26T07:37:09.135Z,1001.08
2022-09-26T07:38:09.165Z,1001.13
2022-09-26T07:39:09.238Z,1001.09
2022-09-26T07:40:09.232Z,1001.07
2022-09-26T07:41:09.267Z,1001.12
2022-09-26T07:42:09.301Z,1001.11
2022-09-26T07:43:19.546Z,1001.06
2022-09-26T07:45:24.748Z,1001.14
2022-09-26T07:46:09.529Z,1001.13
2022-09-26T07:47:09.464Z,1001.12
2022-09-26T07:48:09.496Z,1001.10
2022-09-26T07:49:09.534Z,1001.15
2022-09-26T07:50:09.560Z,1001.07
2022-09-26T07:51:09.597Z,1001.09
2022-09-26T07:52:09.641Z,1001.11
2022-09-26T07:53:09.663Z,1001.10
2022-09-26T07:54:09.783Z,1001.08
2022-09-26T07:55:09.735Z,1001.07
2022-09-26T07:56:09.762Z,1001.11
2022-09-26T07:57:09.801Z,1001.10
2022-09-26T07:58:09.827Z,1001.11
2022-09-26T07:59:09.862Z,1001.12
2022-09-26T08:00:09.896Z,1001.10
2022-09-26T08:01:09.953Z,1001.07
2022-09-26T08:02:10.168Z,1001.13
2022-09-26T08:03:10.054Z,1001.11
2022-09-26T08:04:10.060Z,1001.15
2022-09-26T08:05:10.061Z,1001.10
2022-09-26T08:06:10.092Z,1001.15
2022-09-26T08:07:10.126Z,1001.07
2022-09-26T08:08:10.162Z,1001.09
2022-09-26T08:09:10.240Z,1001.13
2022-09-26T08:10:10.225Z,1001.13
2022-09-26T08:11:10.261Z,1001.12
2022-09-26T08:12:10.293Z,1001.06
2022-09-26T08:13:10.329Z,1001.07
2022-09-26T08:14:10.363Z,1001.06
2022-09-26T08:15:10.396Z,1001.07
2022-09-26T08:16:10.488Z,1001.07
2022-09-26T08:17:14.090Z,1001.04
2022-09-26T08:18:10.492Z,1001.10
2022-09-26T08:19:10.528Z,1001.03
2022-09-26T08:20:10.559Z,1001.05
2022-09-26T08:21:10.594Z,1001.07
2022-09-26T08:22:10.647Z,1001.03
2022-09-26T08:23:10.665Z,1001.00
2022-09-26T08:24:10.697Z,1001.01
2022-09-26T08:25:10.730Z,1001.02
2022-09-26T08:26:10.771Z,1001.02
2022-09-26T08:27:10.794Z,1000.96
2022-09-26T08:28:10.828Z,1001.02
2022-09-26T08:29:10.861Z,1000.99
2022-09-26T08:30:10.893Z,1001.00
2022-09-26T08:31:10.988Z,1000.97
2022-09-26T08:32:10.963Z,1000.98
2022-09-26T08:33:10.999Z,1000.97
2022-09-26T08:34:11.027Z,1000.96
2022-09-26T08:35:11.064Z,1000.94
2022-09-26T08:36:11.101Z,1000.99
2022-09-26T08:37:11.140Z,1000.99
2022-09-26T08:38:11.166Z,1000.93
2022-09-26T08:39:11.200Z,1000.97
2022-09-26T08:40:11.295Z,1001.01
2022-09-26T08:41:11.265Z,1000.95
2022-09-26T08:42:11.298Z,1000.99
2022-09-26T08:43:11.341Z,1000.92
2022-09-26T08:44:11.371Z,1000.92
2022-09-26T08:45:11.401Z,1000.91
2022-09-26T08:46:11.497Z,1000.96
2022-09-26T08:47:11.467Z,1000.93
2022-09-26T08:48:11.501Z,1000.90
2022-09-26T08:49:11.544Z,1000.87
2022-09-26T08:50:11.579Z,1000.87
2022-09-26T08:51:11.602Z,1000.90
2022-09-26T08:52:11.635Z,1000.93
2022-09-26T08:53:11.672Z,1000.97
2022-09-26T08:54:11.755Z,1000.90
2022-09-26T08:55:11.737Z,1000.89
2022-09-26T08:56:11.771Z,1000.89
2022-09-26T08:57:11.813Z,1000.88
2022-09-26T08:58:11.839Z,1000.80
2022-09-26T08:59:11.874Z,1000.91
2022-09-26T09:00:11.908Z,1000.86
2022-09-26T09:01:11.974Z,1000.91
2022-09-26T09:02:12.077Z,1000.91
2022-09-26T09:03:12.042Z,1000.84
2022-09-26T09:04:12.059Z,1000.80
2022-09-26T09:05:12.083Z,1000.86
2022-09-26T09:06:12.110Z,1000.85
2022-09-26T09:07:12.146Z,1000.78
2022-09-26T09:08:12.181Z,1000.81
2022-09-26T09:09:12.221Z,1000.77
2022-09-26T09:10:12.249Z,1000.75
2022-09-26T09:11:12.284Z,1000.85
2022-09-26T09:12:12.336Z,1000.78
2022-09-26T09:13:12.352Z,1000.77
2022-09-26T09:14:12.473Z,1000.76
2022-09-26T09:15:25.157Z,1000.69
2022-09-26T09:16:12.510Z,1000.62
2022-09-26T09:17:12.489Z,1000.66
2022-09-26T09:18:13.824Z,1000.74
2022-09-26T09:19:12.558Z,1000.66
2022-09-26T09:20:12.592Z,1000.71
2022-09-26T09:21:12.630Z,1000.66
2022-09-26T09:22:12.660Z,1000.70
2022-09-26T09:23:12.697Z,1000.62
2022-09-26T09:24:12.769Z,1000.62
2022-09-26T09:25:12.766Z,1000.61
2022-09-26T09:28:12.869Z,1000.55
2022-09-26T09:29:18.693Z,1000.56
2022-09-26T09:30:17.276Z,1000.57
2022-09-26T09:31:13.000Z,1000.60
2022-09-26T09:32:13.009Z,1000.60
2022-09-26T09:33:13.049Z,1000.60
2022-09-26T09:34:13.098Z,1000.56
2022-09-26T09:35:13.113Z,1000.54
2022-09-26T09:36:13.153Z,1000.54
2022-09-26T09:37:13.212Z,1000.57
2022-09-26T09:38:13.215Z,1000.56
2022-09-26T09:39:13.253Z,1000.54
2022-09-26T09:40:13.304Z,1000.53
2022-09-26T09:41:13.323Z,1000.52
2022-09-26T09:42:13.358Z,1000.49
2022-09-26T09:43:13.391Z,1000.54
2022-09-26T09:44:13.553Z,1000.49
2022-09-26T09:45:13.464Z,1000.47
2022-09-26T09:46:13.529Z,1000.41
2022-09-26T09:47:13.533Z,1000.42
2022-09-26T09:48:13.565Z,1000.43
2022-09-26T09:49:13.603Z,1000.40
2022-09-26T09:50:13.638Z,1000.39
2022-09-26T09:51:13.670Z,1000.39
2022-09-26T09:52:13.705Z,1000.37
2022-09-26T09:53:13.748Z,1000.36
2022-09-26T09:54:13.832Z,1000.33
2022-09-26T09:55:13.811Z,1000.35
2022-09-26T09:56:13.848Z,1000.35
2022-09-26T09:57:13.885Z,1000.34
2022-09-26T09:58:13.917Z,1000.35
2022-09-26T09:59:13.951Z,1000.31
2022-09-26T10:00:13.985Z,1000.25
2022-09-26T10:01:14.022Z,1000.27
2022-09-26T10:02:14.067Z,1000.25
2022-09-26T10:03:14.175Z,1000.24
2022-09-26T10:04:14.288Z,1000.21
2022-09-26T10:05:14.162Z,1000.13
2022-09-26T10:06:44.238Z,1000.19
2022-09-26T10:07:14.239Z,1000.18
2022-09-26T10:08:14.268Z,1000.12
2022-09-26T10:09:39.096Z,1000.16
2022-09-26T10:10:14.338Z,1000.14
2022-09-26T10:11:14.372Z,1000.18
2022-09-26T10:12:14.409Z,1000.25
2022-09-26T10:13:14.444Z,1000.17
2022-09-26T10:14:14.603Z,1000.15
2022-09-26T10:15:14.513Z,1000.12
2022-09-26T10:16:14.614Z,1000.08
2022-09-26T10:17:14.583Z,1000.02
2022-09-26T10:18:27.740Z,1000.00
2022-09-26T10:19:14.655Z,1000.03
2022-09-26T10:20:14.758Z,1000.01
2022-09-26T10:21:14.728Z,1000.00
2022-09-26T10:22:14.759Z,1000.04
2022-09-26T10:23:14.797Z,999.98
2022-09-26T10:24:14.945Z,999.95
2022-09-26T10:25:14.880Z,1000.01
2022-09-26T10:26:14.901Z,999.98
2022-09-26T10:27:14.939Z,999.99
2022-09-26T10:28:14.972Z,999.93
2022-09-26T10:29:15.008Z,999.93
2022-09-26T10:30:15.096Z,999.95
2022-09-26T10:31:15.135Z,999.93
2022-09-26T10:32:15.113Z,999.86
2022-09-26T10:33:15.151Z,999.86
2022-09-26T10:34:15.356Z,999.86
2022-09-26T10:35:19.397Z,999.93
2022-09-26T10:36:15.259Z,999.88
2022-09-26T10:37:15.293Z,999.86
2022-09-26T10:38:15.325Z,999.89
2022-09-26T10:39:15.371Z,999.88
2022-09-26T10:40:15.612Z,999.84
2022-09-26T10:41:15.442Z,999.84
2022-09-26T10:42:15.465Z,999.86
2022-09-26T10:43:15.502Z,999.78
2022-09-26T10:44:15.727Z,999.94
2022-09-26T10:45:15.573Z,999.83
2022-09-26T10:46:15.682Z,999.81
2022-09-26T10:47:15.642Z,999.77
2022-09-26T10:48:15.681Z,999.77
2022-09-26T10:49:15.718Z,999.78
2022-09-26T10:50:15.747Z,999.76
2022-09-26T10:51:15.804Z,999.82
2022-09-26T10:52:18.639Z,999.73
2022-09-26T10:53:15.853Z,999.73
2022-09-26T10:54:16.057Z,999.72
2022-09-26T10:55:15.923Z,999.72
2022-09-26T10:56:15.963Z,999.70
2022-09-26T10:57:16.232Z,999.75
2022-09-26T10:58:16.028Z,999.67
2022-09-26T10:59:16.062Z,999.76
2022-09-26T11:00:16.097Z,999.73
2022-09-26T11:01:16.150Z,999.70
2022-09-26T11:02:16.166Z,999.69
2022-09-26T11:03:16.303Z,999.68
2022-09-26T11:04:16.336Z,999.69
2022-09-26T11:05:16.275Z,999.62
2022-09-26T11:06:20.523Z,999.60
2022-09-26T11:07:16.344Z,999.58
2022-09-26T11:08:16.376Z,999.59
2022-09-26T11:09:16.413Z,999.58
2022-09-26T11:10:16.455Z,999.59
2022-09-26T11:11:16.484Z,999.56
2022-09-26T11:12:16.522Z,999.59
2022-09-26T11:13:16.591Z,999.60
2022-09-26T11:14:16.588Z,999.61
2022-09-26T11:15:16.620Z,999.61
2022-09-26T11:16:16.723Z,999.66
2022-09-26T11:17:16.691Z,999.62
2022-09-26T11:18:16.726Z,999.70
2022-09-26T11:19:16.759Z,999.57
2022-09-26T11:20:16.796Z,999.60
2022-09-26T11:21:28.367Z,999.50
2022-09-26T11:22:16.866Z,999.64
2022-09-26T11:23:16.898Z,999.55
2022-09-26T11:24:16.937Z,999.55
2022-09-26T11:25:16.970Z,999.52
2022-09-26T11:26:17.016Z,999.51
2022-09-26T11:27:17.046Z,999.49
2022-09-26T11:28:17.074Z,999.46
2022-09-26T11:29:17.337Z,999.47
2022-09-26T11:30:17.144Z,999.43
2022-09-26T11:31:17.213Z,999.43
2022-09-26T11:32:17.217Z,999.35
2022-09-26T11:33:17.246Z,999.30
2022-09-26T11:34:17.283Z,999.34
2022-09-26T11:35:17.320Z,999.34
2022-09-26T11:36:17.442Z,999.34
2022-09-26T11:37:17.459Z,999.35
2022-09-26T11:38:18.252Z,999.30
2022-09-26T11:39:18.757Z,999.31
2022-09-26T11:40:17.655Z,999.29
2022-09-26T11:41:18.256Z,999.27
2022-09-26T11:42:17.596Z,999.22
2022-09-26T11:43:17.694Z,999.23
2022-09-26T11:44:17.714Z,999.31
2022-09-26T11:45:17.722Z,999.18
2022-09-26T11:46:18.377Z,999.21
2022-09-26T11:47:19.255Z,999.19
2022-09-26T11:48:18.767Z,999.18
2022-09-26T11:49:18.757Z,999.22
2022-09-26T11:50:18.768Z,999.24
2022-09-26T11:51:17.961Z,999.22
2022-09-26T11:52:18.760Z,999.14
2022-09-26T11:53:25.155Z,999.16
2022-09-26T11:55:11.112Z,999.07
2022-09-26T11:56:11.143Z,999.07
2022-09-26T11:58:04.315Z,999.12
2022-09-26T11:59:04.338Z,999.06
2022-09-26T12:00:57.580Z,999.09
2022-09-26T12:01:57.583Z,999.08
2022-09-26T12:03:50.847Z,999.05
2022-09-26T12:04:50.785Z,999.03
2022-09-26T12:06:43.957Z,999.04
2022-09-26T12:07:43.987Z,998.98
2022-09-26T12:09:48.052Z,999.02
2022-09-26T12:10:48.078Z,998.87
2022-09-26T12:12:52.132Z,998.84
2022-09-26T12:13:52.159Z,998.79
2022-09-26T12:15:45.211Z,998.88
2022-09-26T12:16:45.181Z,998.84
2022-09-26T12:18:38.351Z,998.78
2022-09-26T12:19:38.381Z,998.75
2022-09-26T12:21:31.551Z,998.74
2022-09-26T12:22:31.579Z,998.71